Time;durP1;ratioP1;P1;durP2;ratioP2;P2;SDS_P1;SDS_P2;PMS_P1;PMS_P2;Temp;Humidity;BMP_temperature;BMP_pressure;BME280_temperature;BME280_humidity;BME280_pressure;Samples;Min_cycle;Max_cycle;Signal;HPM_P1;HPM_P2
2024/03/23 00:00:05;;;;;;;18.35;6.85;;;;;;;;;;694274;28;821;-66
2024/03/23 00:00:32;;;;;;;14.38;6.68;;;;;;;;;;693161;28;4372;-66
2024/03/23 00:00:52;;;;;;;12.67;6.13;;;;;;;;;;694378;28;1343;-66
2024/03/23 00:01:12;;;;;;;12.25;6.43;;;;;;;;;;693458;28;2829;-66
2024/03/23 00:01:32;;;;;;;16.00;6.57;;;;;;;;;;695204;28;936;-67
2024/03/23 00:01:53;;;;;;;13.17;6.23;;;;;;;;;;693647;28;1140;-66
2024/03/23 00:02:13;;;;;;;15.30;7.00;;;;;;;;;;693707;28;1771;-66
2024/03/23 00:02:33;;;;;;;15.90;6.45;;;;;;;;;;695846;28;1053;-66
2024/03/23 00:02:53;;;;;;;16.80;6.93;;;;;;;;;;694106;28;892;-67
2024/03/23 00:03:14;;;;;;;16.70;6.80;;;;;;;;;;693398;28;2228;-67
2024/03/23 00:03:34;;;;;;;14.63;6.20;;;;;;;;;;694856;28;4495;-67
2024/03/23 00:03:54;;;;;;;15.37;6.30;;;;;;;;;;697299;28;1360;-66
2024/03/23 00:04:14;;;;;;;16.90;6.17;;;;;;;;;;696562;28;2335;-67
2024/03/23 00:04:35;;;;;;;16.52;5.97;;;;;;;;;;698528;28;974;-69
2024/03/23 00:04:55;;;;;;;16.20;6.17;;;;;;;;;;696936;28;1319;-67
2024/03/23 00:05:15;;;;;;;14.10;5.97;;;;;;;;;;696629;28;1764;-67
2024/03/23 00:05:37;;;;;;;14.67;5.93;;;;;;;;;;698657;28;938;-66
2024/03/23 00:05:57;;;;;;;15.13;6.03;;;;;;;;;;693102;28;1096;-67
2024/03/23 00:06:18;;;;;;;15.13;5.67;;;;;;;;;;692112;28;2391;-66
2024/03/23 00:06:38;;;;;;;13.38;5.47;;;;;;;;;;694940;28;4274;-66
2024/03/23 00:06:58;;;;;;;14.87;6.30;;;;;;;;;;695242;28;1254;-67
2024/03/23 00:07:18;;;;;;;16.75;6.20;;;;;;;;;;694026;28;1799;-67
2024/03/23 00:07:38;;;;;;;17.57;6.27;;;;;;;;;;695319;28;1005;-67
2024/03/23 00:07:59;;;;;;;14.70;6.53;;;;;;;;;;695087;28;1101;-67
2024/03/23 00:08:19;;;;;;;13.95;6.47;;;;;;;;;;694015;28;2366;-67
2024/03/23 00:08:40;;;;;;;13.10;6.10;;;;;;;;;;695280;28;1024;-67
2024/03/23 00:09:00;;;;;;;13.20;5.83;;;;;;;;;;695420;28;1253;-66
2024/03/23 00:09:21;;;;;;;15.38;5.93;;;;;;;;;;693672;28;3656;-67
2024/03/23 00:09:42;;;;;;;17.13;6.00;;;;;;;;;;694571;28;4397;-66
2024/03/23 00:10:04;;;;;;;16.40;5.93;;;;;;;;;;692801;28;1103;-66
2024/03/23 00:10:24;;;;;;;14.35;5.90;;;;;;;;;;689837;28;1795;-67
2024/03/23 00:10:44;;;;;;;13.87;6.10;;;;;;;;;;691678;28;974;-66
2024/03/23 00:11:04;;;;;;;15.47;6.50;;;;;;;;;;693058;28;1282;-66
2024/03/23 00:11:25;;;;;;;15.43;6.10;;;;;;;;;;691416;28;2422;-67
2024/03/23 00:11:45;;;;;;;16.10;6.13;;;;;;;;;;694352;28;1153;-66
2024/03/23 00:12:05;;;;;;;18.10;6.67;;;;;;;;;;696044;28;901;-66
2024/03/23 00:12:26;;;;;;;16.03;6.47;;;;;;;;;;693752;28;1814;-66
2024/03/23 00:12:46;;;;;;;14.40;6.13;;;;;;;;;;692931;28;4490;-66
2024/03/23 00:13:06;;;;;;;16.10;6.57;;;;;;;;;;696214;28;793;-66
2024/03/23 00:13:26;;;;;;;13.68;6.35;;;;;;;;;;693900;28;2481;-66
2024/03/23 00:13:47;;;;;;;14.60;6.70;;;;;;;;;;694651;28;911;-67
2024/03/23 00:14:07;;;;;;;14.87;6.07;;;;;;;;;;695727;28;968;-67
2024/03/23 00:14:28;;;;;;;15.50;6.35;;;;;;;;;;693073;28;1911;-67
2024/03/23 00:14:48;;;;;;;14.43;6.70;;;;;;;;;;693827;28;995;-66
2024/03/23 00:15:09;;;;;;;16.30;6.47;;;;;;;;;;694928;28;976;-66
2024/03/23 00:15:30;;;;;;;15.00;6.20;;;;;;;;;;693257;28;4842;-67
2024/03/23 00:15:50;;;;;;;17.95;6.05;;;;;;;;;;694591;28;1042;-67
2024/03/23 00:16:10;;;;;;;17.57;6.20;;;;;;;;;;691891;28;1971;-66
2024/03/23 00:16:31;;;;;;;14.67;6.03;;;;;;;;;;694844;28;742;-67
2024/03/23 00:16:51;;;;;;;16.40;6.28;;;;;;;;;;694572;28;1204;-66
2024/03/23 00:17:11;;;;;;;15.13;6.17;;;;;;;;;;691002;28;2371;-66
2024/03/23 00:17:32;;;;;;;14.17;6.20;;;;;;;;;;692878;28;812;-67
2024/03/23 00:17:52;;;;;;;12.88;6.38;;;;;;;;;;691075;28;970;-66
2024/03/23 00:18:12;;;;;;;16.77;6.37;;;;;;;;;;690377;28;2006;-66
2024/03/23 00:18:32;;;;;;;16.90;6.27;;;;;;;;;;692505;28;4706;-66
2024/03/23 00:18:53;;;;;;;14.85;6.30;;;;;;;;;;694551;28;1012;-66
2024/03/23 00:19:13;;;;;;;15.90;6.60;;;;;;;;;;692755;28;1968;-66
2024/03/23 00:19:33;;;;;;;15.87;6.27;;;;;;;;;;694484;28;1132;-66
2024/03/23 00:19:53;;;;;;;13.60;6.57;;;;;;;;;;694834;28;1042;-66
2024/03/23 00:20:14;;;;;;;15.47;6.33;;;;;;;;;;693840;28;1995;-66
2024/03/23 00:20:34;;;;;;;14.67;6.43;;;;;;;;;;695654;28;881;-67
2024/03/23 00:20:54;;;;;;;16.98;6.50;;;;;;;;;;694266;28;1439;-66
2024/03/23 00:21:15;;;;;;;18.40;6.57;;;;;;;;;;692715;28;2264;-66
2024/03/23 00:21:38;;;;;;;15.70;6.47;;;;;;;;;;694905;28;4492;-66
2024/03/23 00:21:58;;;;;;;17.20;6.30;;;;;;;;;;694868;28;1593;-66
2024/03/23 00:22:19;;;;;;;16.80;6.40;;;;;;;;;;693592;28;1059;-66
2024/03/23 00:22:39;;;;;;;13.90;6.07;;;;;;;;;;695220;28;1097;-66
2024/03/23 00:22:59;;;;;;;14.20;6.15;;;;;;;;;;695275;28;1358;-66
2024/03/23 00:23:20;;;;;;;17.20;6.90;;;;;;;;;;693777;28;1774;-66
2024/03/23 00:23:40;;;;;;;17.55;6.47;;;;;;;;;;695337;28;1032;-65
2024/03/23 00:24:00;;;;;;;14.60;5.73;;;;;;;;;;695020;28;1010;-66
2024/03/23 00:24:20;;;;;;;13.60;6.20;;;;;;;;;;693755;28;2773;-66
2024/03/23 00:24:41;;;;;;;14.98;6.25;;;;;;;;;;694053;28;4435;-65
2024/03/23 00:25:01;;;;;;;16.03;5.97;;;;;;;;;;695603;28;988;-66
2024/03/23 00:25:21;;;;;;;16.30;6.10;;;;;;;;;;693907;28;1047;-66
2024/03/23 00:25:41;;;;;;;17.92;6.38;;;;;;;;;;693569;28;1068;-66
2024/03/23 00:26:02;;;;;;;16.30;6.13;;;;;;;;;;695966;28;781;-66
2024/03/23 00:26:22;;;;;;;17.13;5.90;;;;;;;;;;693177;28;1752;-66
2024/03/23 00:26:42;;;;;;;16.80;6.27;;;;;;;;;;694152;28;1278;-66
2024/03/23 00:27:02;;;;;;;13.70;6.40;;;;;;;;;;695828;28;825;-66
2024/03/23 00:27:23;;;;;;;16.30;6.63;;;;;;;;;;692962;28;991;-66
2024/03/23 00:27:43;;;;;;;15.10;6.53;;;;;;;;;;693487;28;4451;-66
2024/03/23 00:28:03;;;;;;;15.93;6.73;;;;;;;;;;695309;28;991;-66
2024/03/23 00:28:23;;;;;;;17.70;6.75;;;;;;;;;;693182;28;1988;-66
2024/03/23 00:28:44;;;;;;;18.03;6.70;;;;;;;;;;694244;28;1093;-66
2024/03/23 00:29:04;;;;;;;16.97;6.50;;;;;;;;;;692331;28;8975;-66
2024/03/23 00:29:24;;;;;;;15.95;6.47;;;;;;;;;;693523;28;1684;-66
2024/03/23 00:29:44;;;;;;;13.70;6.80;;;;;;;;;;697307;28;1003;-66
2024/03/23 00:30:05;;;;;;;15.80;7.17;;;;;;;;;;698480;28;1026;-66
2024/03/23 00:30:25;;;;;;;14.73;6.30;;;;;;;;;;696326;28;2309;-66
2024/03/23 00:30:45;;;;;;;16.40;6.83;;;;;;;;;;696445;28;4543;-66
2024/03/23 00:31:05;;;;;;;16.73;6.40;;;;;;;;;;694443;28;962;-66
2024/03/23 00:31:26;;;;;;;18.60;6.70;;;;;;;;;;693590;28;1700;-66
2024/03/23 00:31:46;;;;;;;15.32;6.90;;;;;;;;;;693703;28;1106;-66
2024/03/23 00:32:06;;;;;;;17.43;6.67;;;;;;;;;;695377;28;1242;-66
2024/03/23 00:32:26;;;;;;;15.63;6.33;;;;;;;;;;693500;28;2216;-64
2024/03/23 00:32:46;;;;;;;16.03;6.30;;;;;;;;;;694333;28;937;-65
2024/03/23 00:33:07;;;;;;;15.30;7.03;;;;;;;;;;695602;28;951;-65
2024/03/23 00:33:27;;;;;;;15.10;6.97;;;;;;;;;;693546;28;1849;-65
2024/03/23 00:33:48;;;;;;;15.77;6.87;;;;;;;;;;693631;28;4465;-65
2024/03/23 00:34:11;;;;;;;18.67;6.75;;;;;;;;;;695875;28;999;-66
2024/03/23 00:34:33;;;;;;;17.77;7.20;;;;;;;;;;694621;28;1914;-66
2024/03/23 00:34:53;;;;;;;16.87;7.30;;;;;;;;;;694369;28;1049;-66
2024/03/23 00:35:14;;;;;;;14.23;6.70;;;;;;;;;;693628;28;1109;-66
2024/03/23 00:35:34;;;;;;;17.10;6.80;;;;;;;;;;694118;28;904;-66
2024/03/23 00:35:54;;;;;;;16.90;6.75;;;;;;;;;;692700;28;1241;-66
2024/03/23 00:36:14;;;;;;;16.83;6.97;;;;;;;;;;692092;28;2231;-65
2024/03/23 00:36:35;;;;;;;18.40;7.60;;;;;;;;;;695019;28;4400;-66
2024/03/23 00:36:55;;;;;;;17.17;7.28;;;;;;;;;;692923;28;1123;-66
2024/03/23 00:37:15;;;;;;;18.23;7.37;;;;;;;;;;692903;28;1447;-66
2024/03/23 00:37:35;;;;;;;17.00;6.90;;;;;;;;;;695569;28;947;-65
2024/03/23 00:37:56;;;;;;;15.35;6.72;;;;;;;;;;691746;28;1376;-65
2024/03/23 00:38:16;;;;;;;16.00;6.87;;;;;;;;;;690676;28;2478;-65
2024/03/23 00:38:39;;;;;;;17.13;7.10;;;;;;;;;;692597;28;1238;-65
2024/03/23 00:38:59;;;;;;;19.27;8.10;;;;;;;;;;692059;28;1089;-65
2024/03/23 00:39:19;;;;;;;17.80;7.53;;;;;;;;;;690721;28;2287;-65
2024/03/23 00:39:40;;;;;;;17.70;7.03;;;;;;;;;;694361;28;4377;-65
2024/03/23 00:40:00;;;;;;;17.33;6.80;;;;;;;;;;695514;28;956;-65
2024/03/23 00:40:20;;;;;;;18.27;7.20;;;;;;;;;;691653;28;2611;-65
2024/03/23 00:40:40;;;;;;;15.35;7.05;;;;;;;;;;693660;28;1129;-65
2024/03/23 00:41:01;;;;;;;18.17;7.37;;;;;;;;;;695805;28;1132;-65
2024/03/23 00:41:21;;;;;;;17.60;7.33;;;;;;;;;;692700;28;1822;-65
2024/03/23 00:41:41;;;;;;;18.37;7.30;;;;;;;;;;694795;28;959;-65
2024/03/23 00:42:01;;;;;;;17.63;7.25;;;;;;;;;;694504;28;1237;-66
2024/03/23 00:42:22;;;;;;;15.93;7.20;;;;;;;;;;692820;28;1025;-65
2024/03/23 00:42:42;;;;;;;15.93;7.30;;;;;;;;;;694663;28;4329;-66
2024/03/23 00:43:02;;;;;;;18.05;7.50;;;;;;;;;;690242;28;1478;-67
2024/03/23 00:43:23;;;;;;;19.37;7.67;;;;;;;;;;688702;28;1765;-66
2024/03/23 00:43:43;;;;;;;22.07;8.00;;;;;;;;;;688414;28;1092;-66
2024/03/23 00:44:03;;;;;;;18.50;7.60;;;;;;;;;;689407;28;885;-65
2024/03/23 00:44:23;;;;;;;17.60;7.40;;;;;;;;;;687864;28;1034;-66
2024/03/23 00:44:43;;;;;;;17.67;7.43;;;;;;;;;;688295;28;1285;-65
2024/03/23 00:45:04;;;;;;;20.88;7.50;;;;;;;;;;694788;28;932;-64
2024/03/23 00:45:24;;;;;;;22.70;8.03;;;;;;;;;;693081;28;2458;-65
2024/03/23 00:45:45;;;;;;;22.80;8.17;;;;;;;;;;692950;28;4481;-65
2024/03/23 00:46:05;;;;;;;23.00;8.48;;;;;;;;;;697743;28;936;-65
2024/03/23 00:46:26;;;;;;;18.20;7.53;;;;;;;;;;695644;28;1783;-66
2024/03/23 00:46:46;;;;;;;17.60;7.50;;;;;;;;;;694784;28;948;-65
2024/03/23 00:47:06;;;;;;;19.17;7.73;;;;;;;;;;695606;28;1271;-65
2024/03/23 00:47:26;;;;;;;19.17;7.80;;;;;;;;;;693042;28;1784;-65
2024/03/23 00:47:47;;;;;;;18.63;7.50;;;;;;;;;;694104;28;981;-65
2024/03/23 00:48:07;;;;;;;19.80;7.43;;;;;;;;;;695681;28;1061;-65
2024/03/23 00:48:27;;;;;;;19.10;7.77;;;;;;;;;;693693;28;1765;-65
2024/03/23 00:48:47;;;;;;;19.73;7.80;;;;;;;;;;692758;28;4304;-65
2024/03/23 00:49:07;;;;;;;20.17;7.70;;;;;;;;;;695934;28;987;-65
2024/03/23 00:49:28;;;;;;;19.10;7.63;;;;;;;;;;693435;28;1722;-65
2024/03/23 00:49:48;;;;;;;18.00;7.60;;;;;;;;;;693944;28;1127;-65
2024/03/23 00:50:08;;;;;;;17.67;7.80;;;;;;;;;;692462;28;1178;-65
2024/03/23 00:50:28;;;;;;;18.30;8.07;;;;;;;;;;690539;28;1743;-65
2024/03/23 00:50:48;;;;;;;18.53;7.67;;;;;;;;;;691952;28;1054;-65
2024/03/23 00:51:09;;;;;;;19.53;8.20;;;;;;;;;;692979;28;1062;-65
2024/03/23 00:51:29;;;;;;;21.40;7.50;;;;;;;;;;690885;28;4321;-65
2024/03/23 00:51:49;;;;;;;20.30;7.57;;;;;;;;;;691598;28;927;-65
2024/03/23 00:52:09;;;;;;;19.57;7.00;;;;;;;;;;695174;28;1303;-65
2024/03/23 00:52:30;;;;;;;18.23;6.90;;;;;;;;;;694058;28;1019;-65
2024/03/23 00:52:50;;;;;;;19.40;6.93;;;;;;;;;;697251;28;1170;-65
2024/03/23 00:53:10;;;;;;;21.63;7.73;;;;;;;;;;698082;28;982;-66
2024/03/23 00:53:30;;;;;;;17.97;7.40;;;;;;;;;;697175;28;1601;-65
2024/03/23 00:53:51;;;;;;;17.75;7.22;;;;;;;;;;696955;28;938;-65
2024/03/23 00:54:11;;;;;;;19.87;6.90;;;;;;;;;;696582;28;1010;-65
2024/03/23 00:54:31;;;;;;;19.10;7.17;;;;;;;;;;696781;28;4521;-65
2024/03/23 00:54:51;;;;;;;17.38;6.70;;;;;;;;;;693022;28;868;-65
2024/03/23 00:55:11;;;;;;;15.37;6.57;;;;;;;;;;695090;28;925;-65
2024/03/23 00:55:32;;;;;;;16.50;6.77;;;;;;;;;;693793;28;2593;-66
2024/03/23 00:55:52;;;;;;;14.40;6.60;;;;;;;;;;693592;28;1094;-66
2024/03/23 00:56:12;;;;;;;16.58;6.43;;;;;;;;;;694668;28;971;-66
2024/03/23 00:56:33;;;;;;;15.20;6.17;;;;;;;;;;694053;28;1538;-66
2024/03/23 00:56:53;;;;;;;17.05;6.53;;;;;;;;;;695111;28;932;-66
2024/03/23 00:57:13;;;;;;;14.87;6.17;;;;;;;;;;695929;28;869;-65
2024/03/23 00:57:34;;;;;;;15.43;6.20;;;;;;;;;;693548;28;4386;-67
2024/03/23 00:57:54;;;;;;;15.43;6.03;;;;;;;;;;695749;28;932;-66
2024/03/23 00:58:15;;;;;;;13.50;5.93;;;;;;;;;;695202;28;1357;-66
2024/03/23 00:58:35;;;;;;;11.70;5.60;;;;;;;;;;694178;28;1412;-66
2024/03/23 00:58:55;;;;;;;13.57;5.77;;;;;;;;;;695569;28;1274;-66
2024/03/23 00:59:15;;;;;;;12.60;5.63;;;;;;;;;;695416;28;1439;-65
2024/03/23 00:59:36;;;;;;;14.57;5.65;;;;;;;;;;695001;28;812;-65
2024/03/23 00:59:56;;;;;;;16.80;5.73;;;;;;;;;;695460;28;1215;-65
2024/03/23 01:00:16;;;;;;;17.63;5.93;;;;;;;;;;693918;28;1924;-67
2024/03/23 01:00:36;;;;;;;15.07;5.50;;;;;;;;;;694795;28;4614;-66
2024/03/23 01:00:57;;;;;;;14.03;5.90;;;;;;;;;;695966;28;1201;-65
2024/03/23 01:01:17;;;;;;;13.47;5.30;;;;;;;;;;694661;28;1915;-65
2024/03/23 01:01:37;;;;;;;12.00;4.93;;;;;;;;;;695694;28;1456;-65
2024/03/23 01:01:57;;;;;;;12.32;5.30;;;;;;;;;;696095;28;845;-67
2024/03/23 01:02:18;;;;;;;13.83;5.50;;;;;;;;;;694318;28;1003;-66
2024/03/23 01:02:39;;;;;;;14.65;5.15;;;;;;;;;;695555;28;1493;-65
2024/03/23 01:02:59;;;;;;;11.60;5.30;;;;;;;;;;695721;28;1073;-66
2024/03/23 01:03:19;;;;;;;11.80;5.35;;;;;;;;;;693726;28;2305;-65
2024/03/23 01:03:39;;;;;;;12.13;5.30;;;;;;;;;;695322;28;4459;-65
2024/03/23 01:04:00;;;;;;;11.60;4.93;;;;;;;;;;692926;28;1301;-65
2024/03/23 01:04:20;;;;;;;10.00;5.00;;;;;;;;;;693447;28;1525;-65
2024/03/23 01:04:40;;;;;;;12.47;5.20;;;;;;;;;;695730;28;1187;-65
2024/03/23 01:05:00;;;;;;;13.13;5.23;;;;;;;;;;695237;28;888;-65
2024/03/23 01:05:21;;;;;;;11.23;5.07;;;;;;;;;;693704;28;3332;-66
2024/03/23 01:05:41;;;;;;;11.87;4.87;;;;;;;;;;695383;28;1359;-66
2024/03/23 01:06:01;;;;;;;10.77;4.50;;;;;;;;;;695835;28;1153;-68
2024/03/23 01:06:22;;;;;;;10.98;4.35;;;;;;;;;;693267;28;1127;-66
2024/03/23 01:06:42;;;;;;;12.13;5.00;;;;;;;;;;695192;28;5137;-66
2024/03/23 01:07:02;;;;;;;9.97;4.43;;;;;;;;;;695787;28;969;-65
2024/03/23 01:07:22;;;;;;;12.85;4.68;;;;;;;;;;694706;28;1750;-65
2024/03/23 01:07:43;;;;;;;13.07;4.87;;;;;;;;;;695539;28;1210;-66
2024/03/23 01:08:03;;;;;;;11.87;4.47;;;;;;;;;;695944;28;1210;-65
2024/03/23 01:08:23;;;;;;;11.30;4.18;;;;;;;;;;694763;28;1686;-66
2024/03/23 01:08:44;;;;;;;10.10;4.30;;;;;;;;;;695302;28;952;-67
2024/03/23 01:09:04;;;;;;;9.77;4.57;;;;;;;;;;695748;28;892;-66
2024/03/23 01:09:24;;;;;;;11.73;4.15;;;;;;;;;;693402;28;1443;-66
2024/03/23 01:09:44;;;;;;;12.27;4.20;;;;;;;;;;692159;28;4540;-65
2024/03/23 01:10:05;;;;;;;11.30;4.10;;;;;;;;;;693069;28;912;-65
2024/03/23 01:10:25;;;;;;;10.70;4.03;;;;;;;;;;691223;28;1913;-66
2024/03/23 01:10:58;;;;;;;10.03;3.70;;;;;;;;;;692301;28;804;-65
2024/03/23 01:11:19;;;;;;;11.82;4.20;;;;;;;;;;693618;28;1106;-65
2024/03/23 01:11:39;;;;;;;9.85;3.70;;;;;;;;;;695759;28;892;-66
2024/03/23 01:11:59;;;;;;;9.10;3.63;;;;;;;;;;695688;28;924;-66
2024/03/23 01:12:19;;;;;;;11.27;3.90;;;;;;;;;;694476;28;1794;-65
2024/03/23 01:12:40;;;;;;;11.82;4.30;;;;;;;;;;693589;28;4994;-65
2024/03/23 01:13:00;;;;;;;10.23;3.63;;;;;;;;;;696023;28;908;-66
2024/03/23 01:13:22;;;;;;;8.57;3.70;;;;;;;;;;694896;28;2483;-65
2024/03/23 01:13:42;;;;;;;11.15;3.58;;;;;;;;;;694963;28;1135;-65
2024/03/23 01:14:03;;;;;;;11.15;3.40;;;;;;;;;;694897;28;1429;-65
2024/03/23 01:14:23;;;;;;;10.37;3.20;;;;;;;;;;694157;28;1773;-65
2024/03/23 01:14:43;;;;;;;10.57;3.20;;;;;;;;;;695644;28;1914;-65
2024/03/23 01:15:03;;;;;;;11.52;3.10;;;;;;;;;;695674;28;912;-66
2024/03/23 01:15:24;;;;;;;10.03;3.20;;;;;;;;;;692438;28;1705;-65
2024/03/23 01:15:48;;;;;;;10.68;3.22;;;;;;;;;;695661;28;4280;-66
2024/03/23 01:16:08;;;;;;;10.15;3.13;;;;;;;;;;693512;28;1219;-65
2024/03/23 01:16:28;;;;;;;11.07;3.15;;;;;;;;;;692824;28;2169;-65
2024/03/23 01:16:49;;;;;;;12.17;3.30;;;;;;;;;;694190;28;848;-65
2024/03/23 01:17:09;;;;;;;10.80;3.20;;;;;;;;;;694266;28;1225;-65
2024/03/23 01:17:29;;;;;;;9.70;3.15;;;;;;;;;;694219;28;2332;-66
2024/03/23 01:17:49;;;;;;;9.13;2.90;;;;;;;;;;695307;28;975;-65
2024/03/23 01:18:10;;;;;;;8.97;2.80;;;;;;;;;;695670;28;901;-65
2024/03/23 01:18:30;;;;;;;7.00;3.03;;;;;;;;;;692841;28;4589;-65
2024/03/23 01:18:50;;;;;;;8.50;3.00;;;;;;;;;;695875;28;971;-65
2024/03/23 01:19:10;;;;;;;9.77;2.67;;;;;;;;;;696573;28;1230;-65
2024/03/23 01:19:31;;;;;;;10.87;2.87;;;;;;;;;;691784;28;2326;-65
2024/03/23 01:19:51;;;;;;;8.83;2.80;;;;;;;;;;693339;28;867;-65
2024/03/23 01:20:11;;;;;;;7.70;2.70;;;;;;;;;;693262;28;897;-65
2024/03/23 01:20:31;;;;;;;10.32;2.90;;;;;;;;;;692924;28;1861;-65
2024/03/23 01:20:52;;;;;;;9.20;2.70;;;;;;;;;;693367;28;1472;-65
2024/03/23 01:21:12;;;;;;;10.83;3.07;;;;;;;;;;695307;28;1341;-65
2024/03/23 01:21:32;;;;;;;9.90;3.78;;;;;;;;;;693995;28;4505;-66
2024/03/23 01:21:52;;;;;;;10.50;3.93;;;;;;;;;;696017;28;853;-65
2024/03/23 01:22:13;;;;;;;11.07;3.63;;;;;;;;;;695519;28;928;-65
2024/03/23 01:22:33;;;;;;;9.98;3.30;;;;;;;;;;694162;28;1663;-65
2024/03/23 01:22:53;;;;;;;9.40;3.60;;;;;;;;;;695814;28;1038;-66
2024/03/23 01:23:14;;;;;;;9.83;3.70;;;;;;;;;;695244;28;1292;-66
2024/03/23 01:23:34;;;;;;;10.17;3.53;;;;;;;;;;690168;28;2260;-66
2024/03/23 01:23:54;;;;;;;10.77;3.53;;;;;;;;;;692097;28;1377;-66
2024/03/23 01:24:15;;;;;;;11.50;2.93;;;;;;;;;;694254;28;892;-66
2024/03/23 01:24:35;;;;;;;10.45;3.13;;;;;;;;;;693672;28;4582;-65
2024/03/23 01:24:55;;;;;;;10.03;3.47;;;;;;;;;;690982;28;916;-66
2024/03/23 01:25:16;;;;;;;11.57;4.00;;;;;;;;;;690849;28;1570;-65
2024/03/23 01:25:36;;;;;;;10.20;3.47;;;;;;;;;;693448;28;3529;-66
2024/03/23 01:25:56;;;;;;;8.53;2.83;;;;;;;;;;695863;28;943;-65
2024/03/23 01:26:17;;;;;;;9.30;3.03;;;;;;;;;;691819;28;990;-65
2024/03/23 01:26:37;;;;;;;8.93;2.93;;;;;;;;;;691746;28;2322;-65
2024/03/23 01:26:57;;;;;;;9.43;2.80;;;;;;;;;;694428;28;1524;-65
2024/03/23 01:27:18;;;;;;;9.95;2.85;;;;;;;;;;694590;28;920;-65
2024/03/23 01:27:38;;;;;;;10.03;2.90;;;;;;;;;;692409;28;4369;-65
2024/03/23 01:27:58;;;;;;;10.52;2.83;;;;;;;;;;694697;28;856;-65
2024/03/23 01:28:19;;;;;;;7.80;2.57;;;;;;;;;;698627;28;947;-66
2024/03/23 01:28:39;;;;;;;10.00;2.88;;;;;;;;;;697778;28;1447;-66
2024/03/23 01:29:00;;;;;;;9.47;3.00;;;;;;;;;;698551;28;801;-66
2024/03/23 01:29:20;;;;;;;9.07;2.70;;;;;;;;;;697048;28;2432;-66
2024/03/23 01:29:40;;;;;;;9.82;3.17;;;;;;;;;;695489;28;987;-65
2024/03/23 01:30:00;;;;;;;8.77;3.00;;;;;;;;;;694725;28;908;-65
2024/03/23 01:30:21;;;;;;;10.20;2.67;;;;;;;;;;694122;28;2627;-65
2024/03/23 01:30:41;;;;;;;9.55;2.72;;;;;;;;;;695164;28;4652;-65
2024/03/23 01:31:01;;;;;;;11.67;2.80;;;;;;;;;;692877;28;1341;-65
2024/03/23 01:31:21;;;;;;;9.57;2.60;;;;;;;;;;691685;28;1784;-65
2024/03/23 01:31:42;;;;;;;9.38;3.17;;;;;;;;;;692635;28;1391;-65
2024/03/23 01:32:02;;;;;;;8.27;3.03;;;;;;;;;;692294;28;1469;-65
2024/03/23 01:32:22;;;;;;;6.87;2.70;;;;;;;;;;691614;28;1760;-66
2024/03/23 01:32:43;;;;;;;8.83;3.07;;;;;;;;;;692373;28;983;-66
2024/03/23 01:33:03;;;;;;;7.20;3.27;;;;;;;;;;695681;28;836;-66
2024/03/23 01:33:23;;;;;;;7.97;2.80;;;;;;;;;;692647;28;1931;-65
2024/03/23 01:33:44;;;;;;;8.23;2.60;;;;;;;;;;694132;28;4315;-65
2024/03/23 01:34:04;;;;;;;7.33;2.80;;;;;;;;;;695786;28;955;-65
2024/03/23 01:34:24;;;;;;;9.90;3.27;;;;;;;;;;694659;28;2500;-65
2024/03/23 01:34:45;;;;;;;9.73;3.47;;;;;;;;;;695860;28;983;-65
2024/03/23 01:35:05;;;;;;;9.63;2.63;;;;;;;;;;695643;28;871;-65
2024/03/23 01:35:25;;;;;;;10.67;2.63;;;;;;;;;;694306;28;2492;-65
2024/03/23 01:35:46;;;;;;;8.60;2.90;;;;;;;;;;695785;28;849;-65
2024/03/23 01:36:06;;;;;;;7.37;3.10;;;;;;;;;;695697;28;785;-65
2024/03/23 01:36:26;;;;;;;9.27;2.85;;;;;;;;;;694375;28;1584;-65
2024/03/23 01:36:46;;;;;;;8.80;2.90;;;;;;;;;;695534;28;4474;-65
2024/03/23 01:37:07;;;;;;;9.73;3.10;;;;;;;;;;694835;28;1315;-65
2024/03/23 01:37:27;;;;;;;9.82;3.10;;;;;;;;;;694777;28;2563;-65
2024/03/23 01:37:47;;;;;;;12.03;3.17;;;;;;;;;;695705;28;851;-65
2024/03/23 01:38:08;;;;;;;10.27;2.90;;;;;;;;;;695834;28;928;-65
2024/03/23 01:38:28;;;;;;;9.43;2.80;;;;;;;;;;694071;28;1857;-66
2024/03/23 01:38:49;;;;;;;9.35;2.97;;;;;;;;;;694979;28;1192;-66
2024/03/23 01:39:09;;;;;;;7.60;2.80;;;;;;;;;;694358;28;1009;-66
2024/03/23 01:39:29;;;;;;;8.57;2.97;;;;;;;;;;693262;28;4283;-65
2024/03/23 01:39:49;;;;;;;11.70;3.23;;;;;;;;;;695228;28;1309;-65
2024/03/23 01:40:10;;;;;;;11.40;3.43;;;;;;;;;;695290;28;936;-65
2024/03/23 01:40:33;;;;;;;9.45;3.08;;;;;;;;;;691172;28;1441;-66
2024/03/23 01:40:57;;;;;;;10.98;3.22;;;;;;;;;;694765;28;1015;-66
2024/03/23 01:41:17;;;;;;;11.40;3.35;;;;;;;;;;693611;28;936;-66
2024/03/23 01:41:42;;;;;;;11.27;3.47;;;;;;;;;;691062;28;2511;-65
2024/03/23 01:42:02;;;;;;;12.65;3.42;;;;;;;;;;692503;28;1425;-65
2024/03/23 01:42:22;;;;;;;9.90;3.20;;;;;;;;;;691978;28;1473;-68
2024/03/23 01:42:54;;;;;;;8.70;2.87;;;;;;;;;;694749;28;4323;-65
2024/03/23 01:43:14;;;;;;;8.80;3.05;;;;;;;;;;695128;28;1034;-65
2024/03/23 01:43:35;;;;;;;9.17;3.10;;;;;;;;;;694209;28;1739;-65
2024/03/23 01:43:56;;;;;;;8.55;2.90;;;;;;;;;;693946;28;1558;-66
2024/03/23 01:44:17;;;;;;;8.90;2.90;;;;;;;;;;694167;28;1179;-65
2024/03/23 01:44:37;;;;;;;10.68;3.13;;;;;;;;;;694122;28;863;-65
2024/03/23 01:44:58;;;;;;;9.82;3.20;;;;;;;;;;695044;28;992;-65
2024/03/23 01:45:18;;;;;;;9.73;2.90;;;;;;;;;;695874;28;872;-65
2024/03/23 01:45:38;;;;;;;8.10;2.80;;;;;;;;;;694205;28;4566;-65
2024/03/23 01:45:58;;;;;;;9.20;3.30;;;;;;;;;;694156;28;951;-65
2024/03/23 01:46:19;;;;;;;11.60;3.57;;;;;;;;;;694912;28;743;-65
2024/03/23 01:46:41;;;;;;;9.70;3.30;;;;;;;;;;693269;28;1767;-66
2024/03/23 01:47:01;;;;;;;9.25;3.13;;;;;;;;;;694985;28;848;-66
2024/03/23 01:47:22;;;;;;;9.23;2.97;;;;;;;;;;694376;28;1607;-66
2024/03/23 01:47:42;;;;;;;10.60;3.45;;;;;;;;;;696328;28;1148;-66
2024/03/23 01:48:03;;;;;;;10.47;3.40;;;;;;;;;;696195;28;1006;-66
2024/03/23 01:48:24;;;;;;;10.87;3.37;;;;;;;;;;694485;28;1117;-66
2024/03/23 01:48:45;;;;;;;11.75;3.47;;;;;;;;;;695921;28;4562;-66
2024/03/23 01:49:05;;;;;;;12.20;3.40;;;;;;;;;;696141;28;939;-66
2024/03/23 01:49:25;;;;;;;11.47;3.37;;;;;;;;;;693974;28;2368;-66
2024/03/23 01:49:46;;;;;;;10.00;3.27;;;;;;;;;;694441;28;1047;-65
2024/03/23 01:50:06;;;;;;;10.90;3.50;;;;;;;;;;695369;28;1034;-65
2024/03/23 01:50:27;;;;;;;9.30;3.43;;;;;;;;;;694052;28;2417;-65
2024/03/23 01:50:48;;;;;;;7.10;2.75;;;;;;;;;;695213;28;951;-65
2024/03/23 01:51:08;;;;;;;9.65;2.92;;;;;;;;;;695872;28;795;-66
2024/03/23 01:51:28;;;;;;;11.50;3.30;;;;;;;;;;694416;28;4365;-66
2024/03/23 01:51:49;;;;;;;10.40;3.60;;;;;;;;;;695787;28;777;-65
2024/03/23 01:52:09;;;;;;;9.55;3.72;;;;;;;;;;694322;28;1054;-65
2024/03/23 01:52:30;;;;;;;10.57;3.20;;;;;;;;;;694509;28;1824;-66
2024/03/23 01:52:50;;;;;;;10.10;3.20;;;;;;;;;;695558;28;955;-66
2024/03/23 01:53:11;;;;;;;10.20;3.30;;;;;;;;;;696227;28;823;-66
2024/03/23 01:53:31;;;;;;;10.00;3.20;;;;;;;;;;693585;28;2357;-66
2024/03/23 01:53:52;;;;;;;11.90;3.25;;;;;;;;;;695689;28;1293;-66
2024/03/23 01:54:13;;;;;;;11.23;3.33;;;;;;;;;;695027;28;891;-65
2024/03/23 01:54:33;;;;;;;12.05;3.25;;;;;;;;;;693753;28;4594;-66
2024/03/23 01:54:53;;;;;;;9.57;3.03;;;;;;;;;;695508;28;856;-65
2024/03/23 01:55:14;;;;;;;8.80;3.10;;;;;;;;;;696500;28;939;-65
2024/03/23 01:55:34;;;;;;;14.90;3.95;;;;;;;;;;694801;28;2274;-65
2024/03/23 01:55:56;;;;;;;16.73;3.50;;;;;;;;;;693199;28;1266;-65
2024/03/23 01:56:17;;;;;;;10.35;2.92;;;;;;;;;;692700;28;967;-66
2024/03/23 01:56:38;;;;;;;9.00;3.03;;;;;;;;;;691502;28;1172;-65
2024/03/23 01:56:58;;;;;;;12.07;3.63;;;;;;;;;;692421;28;904;-67
2024/03/23 01:57:20;;;;;;;9.85;3.28;;;;;;;;;;693488;28;1095;-66
2024/03/23 01:57:41;;;;;;;8.88;3.30;;;;;;;;;;691532;28;4283;-65
2024/03/23 01:58:01;;;;;;;9.10;3.30;;;;;;;;;;694478;28;896;-65
2024/03/23 01:58:21;;;;;;;9.63;3.53;;;;;;;;;;695226;28;891;-66
2024/03/23 01:58:41;;;;;;;10.73;3.50;;;;;;;;;;693546;28;1187;-66
2024/03/23 01:59:02;;;;;;;10.80;3.27;;;;;;;;;;695961;28;1291;-66
2024/03/23 01:59:23;;;;;;;10.23;3.67;;;;;;;;;;693585;28;889;-66
2024/03/23 01:59:43;;;;;;;9.67;3.43;;;;;;;;;;694541;28;853;-65
2024/03/23 02:00:06;;;;;;;12.27;3.25;;;;;;;;;;695978;28;936;-65
2024/03/23 02:00:32;;;;;;;11.85;3.33;;;;;;;;;;691916;28;4744;-65
2024/03/23 02:00:52;;;;;;;10.07;3.40;;;;;;;;;;691872;28;1463;-66
2024/03/23 02:01:13;;;;;;;10.57;3.60;;;;;;;;;;763944;23;2090;-65
2024/03/23 02:01:35;;;;;;;8.63;3.13;;;;;;;;;;692308;28;3251;-65
2024/03/23 02:01:56;;;;;;;8.27;3.10;;;;;;;;;;694835;28;910;-66
2024/03/23 02:02:18;;;;;;;10.48;3.70;;;;;;;;;;696981;28;1161;-65
2024/03/23 02:02:45;;;;;;;11.07;3.50;;;;;;;;;;696390;28;1775;-66
2024/03/23 02:03:26;;;;;;;11.13;3.70;;;;;;;;;;698295;28;1021;-66
2024/03/23 02:03:46;;;;;;;8.98;3.10;;;;;;;;;;698371;28;4311;-65
2024/03/23 02:04:08;;;;;;;10.20;3.43;;;;;;;;;;699252;28;938;-65
2024/03/23 02:04:29;;;;;;;11.23;3.60;;;;;;;;;;696554;28;1904;-65
2024/03/23 02:04:49;;;;;;;10.37;3.30;;;;;;;;;;697935;28;1290;-65
2024/03/23 02:05:10;;;;;;;10.17;3.33;;;;;;;;;;698235;28;1469;-65
2024/03/23 02:05:30;;;;;;;11.13;3.23;;;;;;;;;;697336;28;1775;-66
2024/03/23 02:05:50;;;;;;;9.43;3.50;;;;;;;;;;698871;28;811;-65
2024/03/23 02:06:11;;;;;;;12.03;3.30;;;;;;;;;;698733;28;903;-66